Time;durP1;ratioP1;P1;durP2;ratioP2;P2;SDS_P1;SDS_P2;PMS_P1;PMS_P2;Temp;Humidity;BMP_temperature;BMP_pressure;BME280_temperature;BME280_humidity;BME280_pressure;Samples;Min_cycle;Max_cycle;Signal;HPM_P1;HPM_P2
2023/12/20 00:02:07;;;;;;;4.27;2.47;;;;;;;8.29;50.32;94426.72;4995758;28;20648;-86
2023/12/20 00:04:38;;;;;;;3.37;2.30;;;;;;;8.26;50.39;94437.38;5010292;28;20611;-86
2023/12/20 00:07:05;;;;;;;2.83;2.40;;;;;;;8.25;50.77;94435.78;5002567;28;20228;-86
2023/12/20 00:09:31;;;;;;;2.60;2.40;;;;;;;8.21;50.92;94443.06;5006288;28;20199;-86
2023/12/20 00:11:59;;;;;;;2.80;1.90;;;;;;;8.16;51.31;94468.47;5004614;28;20599;-85
2023/12/20 00:14:25;;;;;;;2.57;2.37;;;;;;;8.23;51.44;94477.00;4990358;28;20203;-86
2023/12/20 00:16:52;;;;;;;3.00;2.20;;;;;;;8.30;51.66;94494.97;4990238;28;20204;-86
2023/12/20 00:19:18;;;;;;;2.00;1.90;;;;;;;8.41;51.39;94494.50;5000686;28;20199;-86
2023/12/20 00:21:45;;;;;;;2.30;2.10;;;;;;;8.42;51.59;94485.81;5009098;28;20245;-86
2023/12/20 00:24:11;;;;;;;2.30;2.00;;;;;;;8.45;51.25;94477.75;5008955;28;20226;-86
2023/12/20 00:26:48;;;;;;;2.40;1.90;;;;;;;8.45;50.75;94456.44;5001756;28;20226;-86
2023/12/20 00:29:16;;;;;;;1.97;1.87;;;;;;;8.43;50.39;94454.06;4988640;28;20673;-89
2023/12/20 00:31:42;;;;;;;2.30;2.10;;;;;;;8.43;50.45;94443.81;4989700;28;20732;-86
2023/12/20 00:34:08;;;;;;;2.27;2.07;;;;;;;8.45;50.30;94415.41;4990340;28;20238;-85
2023/12/20 00:36:35;;;;;;;2.20;2.00;;;;;;;8.53;50.01;94410.88;5007687;28;20314;-86
2023/12/20 00:39:02;;;;;;;2.13;1.93;;;;;;;8.53;49.39;94384.44;5008820;28;20203;-85
2023/12/20 00:41:28;;;;;;;1.97;1.80;;;;;;;8.46;49.39;94360.56;5008786;28;20227;-86
2023/12/20 00:43:54;;;;;;;1.90;1.60;;;;;;;8.48;49.29;94345.72;5009599;28;20210;-86
2023/12/20 00:46:22;;;;;;;2.67;2.10;;;;;;;8.52;49.25;94339.25;5008964;28;20226;-86
2023/12/20 00:48:49;;;;;;;2.03;1.67;;;;;;;8.50;49.05;94336.06;5009071;28;20672;-86
2023/12/20 00:51:16;;;;;;;1.80;1.70;;;;;;;8.46;49.00;94317.75;5006668;28;20242;-86
2023/12/20 00:53:43;;;;;;;2.43;1.70;;;;;;;8.53;48.88;94330.56;5009259;28;20211;-86
2023/12/20 00:56:09;;;;;;;2.97;1.80;;;;;;;8.54;49.22;94321.88;5014954;28;20248;-86
2023/12/20 00:58:36;;;;;;;1.80;1.70;;;;;;;8.55;48.92;94315.78;5028857;28;20206;-85
2023/12/20 01:01:02;;;;;;;1.97;1.80;;;;;;;8.54;49.05;94306.50;5024512;28;20230;-86
2023/12/20 01:03:30;;;;;;;2.00;1.80;;;;;;;8.58;48.85;94305.91;4989375;28;20211;-86
2023/12/20 01:05:56;;;;;;;2.43;1.90;;;;;;;8.70;48.95;94311.25;4989780;28;20222;-87
2023/12/20 01:08:23;;;;;;;1.83;1.70;;;;;;;8.78;48.65;94289.75;5007220;28;20222;-88
2023/12/20 01:10:50;;;;;;;2.00;1.80;;;;;;;8.76;48.15;94271.97;5008869;28;20223;-87
2023/12/20 01:13:16;;;;;;;1.70;1.60;;;;;;;8.75;48.40;94272.97;4989599;28;20203;-85
2023/12/20 01:15:43;;;;;;;1.70;1.60;;;;;;;8.75;48.61;94285.00;4989008;28;20677;-85
2023/12/20 01:18:15;;;;;;;2.57;1.40;;;;;;;8.70;48.56;94282.22;4993985;28;20210;-86
2023/12/20 01:20:43;;;;;;;1.77;1.57;;;;;;;8.64;48.79;94286.41;5008606;28;20230;-86
2023/12/20 01:23:10;;;;;;;1.63;1.40;;;;;;;8.68;49.08;94289.34;4997232;28;20253;-86
2023/12/20 01:25:36;;;;;;;3.73;1.80;;;;;;;8.75;48.80;94285.00;5008742;28;20206;-85
2023/12/20 01:28:03;;;;;;;1.60;1.50;;;;;;;8.72;48.80;94290.53;5007086;28;20265;-88
2023/12/20 01:30:29;;;;;;;1.43;1.30;;;;;;;8.75;49.24;94296.06;4988005;28;20223;-86
2023/12/20 01:32:55;;;;;;;2.00;1.53;;;;;;;8.73;49.44;94300.59;4989114;28;20203;-86
2023/12/20 01:35:22;;;;;;;1.50;1.40;;;;;;;8.73;49.62;94305.72;4989263;28;20210;-86
2023/12/20 01:37:50;;;;;;;1.63;1.53;;;;;;;8.80;49.35;94310.88;5002014;28;20214;-86
2023/12/20 01:40:16;;;;;;;1.60;1.27;;;;;;;8.73;49.42;94328.03;4957468;28;20228;-86
2023/12/20 01:42:46;;;;;;;1.50;1.40;;;;;;;8.73;49.54;94331.38;4992444;28;20207;-86
2023/12/20 01:45:13;;;;;;;1.50;1.40;;;;;;;8.73;50.17;94346.00;4988482;28;20204;-86
2023/12/20 01:47:39;;;;;;;1.50;1.40;;;;;;;8.71;50.24;94342.81;4989122;28;20228;-85
2023/12/20 01:50:07;;;;;;;1.23;1.13;;;;;;;8.67;50.15;94337.28;4989568;28;20218;-89
2023/12/20 01:52:35;;;;;;;1.40;1.30;;;;;;;8.66;50.09;94336.50;4989916;28;20195;-88
2023/12/20 01:55:06;;;;;;;1.40;1.30;;;;;;;8.71;50.37;94341.06;4992518;28;20195;-86
2023/12/20 01:57:33;;;;;;;1.33;1.23;;;;;;;8.73;50.60;94346.78;5009800;28;20232;-86
2023/12/20 02:00:10;;;;;;;2.30;1.23;;;;;;;8.80;50.28;94344.22;5008282;28;20644;-86
2023/12/20 02:02:40;;;;;;;1.30;1.20;;;;;;;8.78;50.14;94308.50;4995364;28;20269;-85
2023/12/20 02:05:06;;;;;;;1.47;1.37;;;;;;;8.74;50.37;94296.25;4998036;28;20207;-86
2023/12/20 02:07:34;;;;;;;1.40;1.20;;;;;;;8.70;50.13;94302.75;5008330;28;20229;-86
2023/12/20 02:10:03;;;;;;;1.40;1.30;;;;;;;8.63;50.16;94289.94;5008328;28;20217;-86
2023/12/20 02:12:30;;;;;;;1.77;1.40;;;;;;;8.66;50.27;94292.88;5005257;28;20199;-86
2023/12/20 02:15:02;;;;;;;1.03;0.93;;;;;;;8.76;50.21;94295.06;5007655;28;20222;-86
2023/12/20 02:17:29;;;;;;;1.20;1.10;;;;;;;8.80;50.28;94296.28;5003622;28;20180;-86
2023/12/20 02:19:55;;;;;;;1.30;1.20;;;;;;;8.89;50.07;94289.16;4988194;28;20302;-86
2023/12/20 02:22:23;;;;;;;1.20;1.10;;;;;;;8.92;50.18;94299.03;4988619;28;20228;-86
2023/12/20 02:24:49;;;;;;;1.30;1.20;;;;;;;8.89;50.36;94309.69;4989539;28;20200;-86
2023/12/20 02:27:18;;;;;;;1.00;1.00;;;;;;;8.82;50.72;94321.75;4993128;28;20233;-87
2023/12/20 02:29:45;;;;;;;1.20;1.10;;;;;;;8.79;51.19;94340.09;5006873;28;20700;-90
2023/12/20 02:32:12;;;;;;;0.90;0.90;;;;;;;8.72;51.89;94363.16;5008121;28;20223;-90
2023/12/20 02:34:38;;;;;;;0.97;0.90;;;;;;;8.75;51.88;94378.16;5006898;28;20206;-90
2023/12/20 02:37:07;;;;;;;1.27;0.90;;;;;;;8.75;52.00;94392.78;4998131;28;20203;-87
2023/12/20 02:39:35;;;;;;;1.00;0.90;;;;;;;8.81;52.28;94399.72;5007138;28;20191;-88
2023/12/20 02:42:02;;;;;;;0.80;0.80;;;;;;;8.81;52.75;94392.81;5007788;28;20258;-87
2023/12/20 02:44:28;;;;;;;1.30;0.90;;;;;;;8.84;53.08;94412.16;5004373;28;20620;-87
2023/12/20 02:46:55;;;;;;;0.80;0.80;;;;;;;8.87;52.77;94424.56;4995432;28;20207;-86
2023/12/20 02:49:21;;;;;;;1.00;0.87;;;;;;;8.86;53.21;94436.63;5008430;28;20187;-87
2023/12/20 02:51:48;;;;;;;0.97;0.93;;;;;;;8.92;53.36;94440.19;5011263;28;20230;-87
2023/12/20 02:54:14;;;;;;;0.80;0.80;;;;;;;8.88;53.58;94442.34;5010997;28;20198;-87
2023/12/20 02:56:42;;;;;;;0.60;0.60;;;;;;;8.85;53.83;94454.81;5011702;28;20214;-90
2023/12/20 02:59:09;;;;;;;0.80;0.80;;;;;;;8.89;53.99;94467.03;5010315;28;20199;-87
2023/12/20 03:01:36;;;;;;;0.63;0.63;;;;;;;8.92;53.87;94486.41;5010469;28;20830;-87
2023/12/20 03:04:02;;;;;;;1.20;0.70;;;;;;;8.79;54.18;94496.63;5007094;28;20199;-88
2023/12/20 03:06:29;;;;;;;0.80;0.80;;;;;;;8.83;54.32;94515.78;4991797;28;20203;-87
2023/12/20 03:08:55;;;;;;;0.70;0.70;;;;;;;8.78;55.15;94534.31;4991095;28;20623;-87
2023/12/20 03:11:22;;;;;;;1.00;0.90;;;;;;;8.78;55.17;94564.31;5001313;28;20891;-87
2023/12/20 03:13:52;;;;;;;0.80;0.80;;;;;;;8.78;55.71;94583.09;5008491;28;20226;-87
2023/12/20 03:16:19;;;;;;;1.73;0.80;;;;;;;8.80;56.08;94606.78;5000286;28;20207;-87
2023/12/20 03:18:45;;;;;;;1.53;1.00;;;;;;;8.78;56.75;94625.91;5010749;28;20202;-87
2023/12/20 03:21:11;;;;;;;0.83;0.83;;;;;;;8.77;56.99;94640.53;5011312;28;20318;-87
2023/12/20 03:23:38;;;;;;;0.80;0.70;;;;;;;8.77;57.03;94652.56;5010227;28;20198;-87
2023/12/20 03:26:07;;;;;;;0.80;0.80;;;;;;;8.82;57.00;94652.78;5010759;28;20210;-86
2023/12/20 03:28:34;;;;;;;1.10;1.00;;;;;;;8.78;57.35;94683.16;5010635;28;20219;-88
2023/12/20 03:31:05;;;;;;;0.90;0.80;;;;;;;8.80;57.89;94700.94;5010936;28;20234;-89
2023/12/20 03:33:32;;;;;;;0.80;0.80;;;;;;;8.77;58.12;94732.91;5007167;28;21029;-88
2023/12/20 03:35:58;;;;;;;0.80;0.80;;;;;;;8.76;58.53;94748.50;5009702;28;20203;-87
2023/12/20 03:38:24;;;;;;;0.70;0.70;;;;;;;8.77;58.86;94770.63;5010641;28;20202;-86
2023/12/20 03:40:51;;;;;;;0.87;0.87;;;;;;;8.77;59.05;94788.56;4998700;28;20247;-86
2023/12/20 03:43:18;;;;;;;1.10;1.00;;;;;;;8.81;59.34;94794.94;4991132;28;20218;-85
2023/12/20 03:45:50;;;;;;;1.77;0.80;;;;;;;8.84;59.53;94807.41;4995041;28;20199;-86
2023/12/20 03:48:18;;;;;;;0.60;0.60;;;;;;;8.88;59.46;94822.22;5008450;28;20554;-86
2023/12/20 03:50:45;;;;;;;0.70;0.70;;;;;;;8.86;60.10;94844.72;5009917;28;20427;-86
2023/12/20 03:53:11;;;;;;;0.97;0.97;;;;;;;8.85;60.82;94878.28;5010232;28;20203;-86
2023/12/20 03:55:37;;;;;;;0.97;0.93;;;;;;;8.86;61.34;94903.75;4989657;28;20199;-86
2023/12/20 03:58:04;;;;;;;0.80;0.80;;;;;;;8.89;61.50;94913.66;4996800;28;20217;-85
2023/12/20 04:00:40;;;;;;;1.37;1.00;;;;;;;8.83;62.27;94946.97;5009563;28;20224;-86
2023/12/20 04:03:06;;;;;;;2.47;0.90;;;;;;;8.79;63.22;94974.78;5010550;28;20198;-84
2023/12/20 04:05:34;;;;;;;0.90;0.83;;;;;;;8.75;63.76;94996.63;5008242;28;20207;-86
2023/12/20 04:08:03;;;;;;;1.50;0.87;;;;;;;8.69;64.72;95023.00;5009014;28;20242;-88
2023/12/20 04:10:29;;;;;;;0.90;0.90;;;;;;;8.65;65.28;95052.59;5008711;28;20211;-88
2023/12/20 04:13:05;;;;;;;1.70;1.10;;;;;;;8.67;65.53;95068.56;5010142;28;20218;-85
2023/12/20 04:15:31;;;;;;;1.00;0.90;;;;;;;8.51;67.37;95122.63;5009389;28;20206;-89
2023/12/20 04:17:58;;;;;;;1.13;1.00;;;;;;;8.49;67.51;95115.09;5009675;28;20199;-88
2023/12/20 04:20:24;;;;;;;0.80;0.80;;;;;;;8.43;68.96;95163.78;5008221;28;20546;-88
2023/12/20 04:22:52;;;;;;;1.53;1.20;;;;;;;8.36;70.18;95178.25;5008990;28;20203;-89
2023/12/20 04:25:25;;;;;;;1.73;1.00;;;;;;;8.31;71.31;95214.63;5009365;28;20203;-88
2023/12/20 04:27:51;;;;;;;1.30;1.10;;;;;;;8.33;71.71;95217.84;5009999;28;20614;-88
2023/12/20 04:30:18;;;;;;;1.00;1.00;;;;;;;8.38;71.63;95219.91;5008125;28;20210;-89
2023/12/20 04:32:44;;;;;;;1.20;1.10;;;;;;;8.38;72.17;95230.16;5009836;28;20294;-89
2023/12/20 04:35:11;;;;;;;1.30;1.20;;;;;;;8.35;72.61;95231.31;4995150;28;20199;-85
2023/12/20 04:37:40;;;;;;;1.33;1.23;;;;;;;8.36;72.53;95234.66;5003111;28;20206;-86
2023/12/20 04:40:14;;;;;;;1.20;1.10;;;;;;;8.31;73.27;95253.91;5009541;28;20214;-86
2023/12/20 04:42:40;;;;;;;1.20;1.10;;;;;;;8.16;74.22;95283.81;5009339;28;20198;-86
2023/12/20 04:45:07;;;;;;;1.00;1.00;;;;;;;8.14;75.41;95310.59;5009413;28;20217;-86
2023/12/20 04:47:34;;;;;;;1.20;1.10;;;;;;;8.13;76.11;95322.59;4995698;28;20203;-89
2023/12/20 04:50:00;;;;;;;1.97;1.27;;;;;;;8.07;77.07;95353.25;5003624;28;20195;-85
2023/12/20 04:52:35;;;;;;;1.43;1.30;;;;;;;8.09;77.38;95372.63;4996645;28;20218;-86
2023/12/20 04:55:01;;;;;;;1.57;1.47;;;;;;;8.00;79.12;95390.78;5008137;28;20198;-87
2023/12/20 04:57:29;;;;;;;2.23;1.20;;;;;;;7.98;80.52;95437.88;5009854;28;20663;-86
2023/12/20 04:59:56;;;;;;;3.10;1.53;;;;;;;7.95;82.66;95466.41;5009017;28;20611;-85
2023/12/20 05:02:22;;;;;;;1.80;1.70;;;;;;;7.89;84.01;95495.22;5007753;28;20579;-87
2023/12/20 05:04:58;;;;;;;;;;;;;;;;;;;;;
2023/12/20 05:07:25;;;;;;;1.83;1.73;;;;;;;7.88;86.71;95551.81;4992989;28;20575;-87
2023/12/20 05:09:51;;;;;;;2.10;1.90;;;;;;;7.82;88.39;95567.81;5008046;28;20258;-87
2023/12/20 05:12:20;;;;;;;2.10;1.90;;;;;;;7.78;89.03;95581.91;5050865;22;20242;-86
2023/12/20 05:14:49;;;;;;;2.20;2.00;;;;;;;7.83;89.35;95595.88;5029135;28;20209;-87
2023/12/20 05:17:23;;;;;;;2.00;1.80;;;;;;;7.86;89.61;95595.56;5028755;28;20209;-87
2023/12/20 05:19:50;;;;;;;2.40;1.90;;;;;;;7.85;90.07;95595.72;5028467;28;20288;-87
2023/12/20 05:22:17;;;;;;;2.20;2.00;;;;;;;7.86;90.59;95607.56;5024216;28;20220;-87
2023/12/20 05:24:43;;;;;;;1.80;1.70;;;;;;;7.82;91.28;95617.31;4988156;28;20227;-86
2023/12/20 05:27:11;;;;;;;2.40;2.20;;;;;;;7.77;91.71;95629.00;4989528;28;20646;-87
2023/12/20 05:29:44;;;;;;;2.10;1.90;;;;;;;7.72;92.78;95649.16;4988221;28;20611;-89
2023/12/20 05:32:11;;;;;;;2.50;2.07;;;;;;;7.71;93.33;95656.06;5004968;28;20273;-87
2023/12/20 05:34:38;;;;;;;2.00;1.80;;;;;;;7.63;94.19;95667.09;5010796;28;20207;-89
2023/12/20 05:37:04;;;;;;;2.20;2.00;;;;;;;7.59;94.34;95665.81;5000885;28;20210;-90
2023/12/20 05:39:31;;;;;;;2.10;1.90;;;;;;;7.60;94.82;95664.84;4989848;28;20548;-90
2023/12/20 05:41:57;;;;;;;2.00;1.80;;;;;;;7.41;95.29;95680.47;5001170;28;20230;-89
2023/12/20 05:44:24;;;;;;;2.07;1.90;;;;;;;7.44;95.93;95684.50;5008784;28;20230;-88
2023/12/20 05:46:50;;;;;;;2.00;1.80;;;;;;;7.26;95.79;95676.91;5008702;28;20205;-86
2023/12/20 05:49:18;;;;;;;4.17;1.83;;;;;;;7.23;95.24;95672.06;5004649;28;20392;-88
2023/12/20 05:51:45;;;;;;;1.60;1.50;;;;;;;7.11;97.03;95681.81;5016859;28;20214;-87
2023/12/20 05:54:11;;;;;;;1.63;1.53;;;;;;;7.16;95.89;95699.25;5009105;28;20230;-86
2023/12/20 05:56:38;;;;;;;2.10;1.70;;;;;;;7.14;95.89;95694.28;5016050;28;20212;-86
2023/12/20 05:59:04;;;;;;;1.53;1.43;;;;;;;7.10;95.54;95694.75;5000967;28;20221;-90
2023/12/20 06:01:31;;;;;;;1.70;1.60;;;;;;;7.08;95.00;95689.78;5008514;28;20570;-90
2023/12/20 06:03:57;;;;;;;2.63;1.70;;;;;;;7.08;95.37;95700.03;5008815;28;20210;-89
2023/12/20 06:06:25;;;;;;;2.40;1.60;;;;;;;7.14;95.54;95701.16;5009264;28;20198;-90
2023/12/20 06:08:52;;;;;;;2.10;1.90;;;;;;;7.13;95.39;95699.53;5015252;28;20238;-88
2023/12/20 06:11:18;;;;;;;2.07;1.87;;;;;;;7.01;95.46;95714.38;5016098;28;20235;-89
2023/12/20 06:13:45;;;;;;;1.77;1.67;;;;;;;6.99;96.16;95726.50;5014112;28;20293;-89
2023/12/20 06:16:19;;;;;;;1.90;1.80;;;;;;;6.98;96.04;95727.47;5016427;28;20211;-88
2023/12/20 06:18:48;;;;;;;2.20;2.00;;;;;;;6.95;96.53;95727.75;5017847;28;20199;-89
2023/12/20 06:21:14;;;;;;;1.80;1.70;;;;;;;6.94;95.80;95724.41;5019194;28;20219;-89
2023/12/20 06:23:43;;;;;;;1.90;1.70;;;;;;;6.80;96.44;95719.03;5014621;28;20203;-88
2023/12/20 06:26:09;;;;;;;2.20;1.90;;;;;;;6.84;96.75;95733.13;5021808;28;20203;-88
2023/12/20 06:28:36;;;;;;;1.83;1.73;;;;;;;6.88;97.36;95750.59;5033433;28;20265;-88
2023/12/20 06:31:03;;;;;;;2.63;1.70;;;;;;;6.94;97.49;95752.56;5032342;28;20226;-88
2023/12/20 06:33:35;;;;;;;1.70;1.60;;;;;;;6.84;97.64;95758.72;5029779;28;20199;-87
2023/12/20 06:36:01;;;;;;;2.60;1.80;;;;;;;6.85;98.24;95770.56;5014680;28;20202;-89
2023/12/20 06:38:28;;;;;;;1.83;1.70;;;;;;;6.75;97.68;95760.41;5012823;28;20199;-89
2023/12/20 06:40:57;;;;;;;1.50;1.40;;;;;;;6.74;98.29;95781.03;5013219;28;20229;-90
2023/12/20 06:43:25;;;;;;;2.07;1.90;;;;;;;6.80;99.27;95794.03;5013104;28;20293;-89
2023/12/20 06:46:02;;;;;;;1.87;1.70;;;;;;;6.79;98.63;95782.19;5008306;28;20225;-89
2023/12/20 06:48:28;;;;;;;1.80;1.70;;;;;;;6.76;98.85;95786.78;5015271;28;20576;-89
2023/12/20 06:50:55;;;;;;;1.90;1.67;;;;;;;6.80;98.53;95796.59;5012152;28;20247;-89
2023/12/20 06:53:21;;;;;;;1.77;1.60;;;;;;;6.83;98.79;95791.19;5012668;28;20210;-89
2023/12/20 06:55:48;;;;;;;3.43;1.90;;;;;;;6.74;98.63;95781.81;5012284;28;20203;-89
2023/12/20 06:58:16;;;;;;;5.70;3.63;;;;;;;6.86;100.00;95816.50;5011963;28;20203;-88
2023/12/20 07:00:42;;;;;;;1.80;1.60;;;;;;;6.79;99.33;95795.00;5011349;28;20230;-89
2023/12/20 07:03:10;;;;;;;1.50;1.40;;;;;;;6.72;98.46;95790.63;5006872;28;20225;-89
2023/12/20 07:05:48;;;;;;;1.40;1.30;;;;;;;6.50;99.06;95808.03;5011904;28;20302;-88
2023/12/20 07:08:15;;;;;;;1.50;1.40;;;;;;;6.63;99.89;95827.31;5012607;28;20195;-88
2023/12/20 07:10:42;;;;;;;1.60;1.40;;;;;;;6.64;99.25;95832.28;5011453;28;20292;-89
2023/12/20 07:13:08;;;;;;;1.87;1.50;;;;;;;6.59;98.60;95814.00;5011229;28;20659;-89
2023/12/20 07:15:48;;;;;;;2.37;1.40;;;;;;;6.74;99.89;95848.34;5013206;28;20214;-89
2023/12/20 07:18:15;;;;;;;1.30;1.20;;;;;;;6.70;97.55;95811.25;5009385;28;20206;-89
2023/12/20 07:20:41;;;;;;;1.40;1.30;;;;;;;6.76;96.52;95799.59;5010845;28;20234;-89
2023/12/20 07:23:08;;;;;;;1.67;1.10;;;;;;;6.82;96.26;95797.25;5011281;28;20202;-89
2023/12/20 07:25:35;;;;;;;2.57;1.20;;;;;;;6.77;96.54;95798.66;5010207;28;20763;-89
2023/12/20 07:28:12;;;;;;;1.80;1.30;;;;;;;6.74;96.37;95793.81;5012960;28;20617;-89
2023/12/20 07:30:38;;;;;;;1.40;1.30;;;;;;;6.86;95.59;95800.34;5011125;28;20218;-88
2023/12/20 07:33:08;;;;;;;3.53;1.33;;;;;;;6.88;95.51;95796.69;5011066;28;20234;-90
2023/12/20 07:35:38;;;;;;;1.60;1.20;;;;;;;6.73;95.93;95798.16;5007786;28;20812;-88
2023/12/20 07:38:25;;;;;;;1.80;1.30;;;;;;;6.81;95.69;95797.41;4990991;28;20204;-88
2023/12/20 07:40:54;;;;;;;1.43;1.00;;;;;;;6.87;95.47;95805.31;4990937;28;20636;-89
2023/12/20 07:43:53;;;;;;;1.20;1.10;;;;;;;6.76;95.04;95787.59;4991393;28;20211;-89
2023/12/20 07:46:29;;;;;;;1.80;1.40;;;;;;;6.74;95.61;95798.94;4966393;28;20206;-88
2023/12/20 07:48:59;;;;;;;1.13;1.03;;;;;;;6.80;95.28;95794.03;4995160;28;20246;-89
2023/12/20 07:51:26;;;;;;;1.00;0.90;;;;;;;6.70;94.86;95789.97;4996507;28;20254;-89
2023/12/20 07:53:52;;;;;;;1.33;1.10;;;;;;;6.77;95.08;95801.19;5006921;28;20210;-87
2023/12/20 07:56:20;;;;;;;4.13;3.30;;;;;;;6.82;94.75;95792.13;5012551;28;20205;-89
2023/12/20 07:58:56;;;;;;;1.20;1.10;;;;;;;6.80;94.12;95773.56;5011530;28;20201;-88
2023/12/20 08:01:22;;;;;;;0.93;0.87;;;;;;;6.83;93.68;95780.16;5009951;28;20222;-88
2023/12/20 08:03:50;;;;;;;1.17;1.00;;;;;;;6.88;93.51;95780.50;5010336;28;20203;-88
2023/12/20 08:06:18;;;;;;;0.90;0.90;;;;;;;6.84;93.13;95781.75;5008056;28;20282;-88
2023/12/20 08:08:43;;;;;;;0.80;0.80;;;;;;;6.85;93.38;95791.84;5009902;28;20227;-88
2023/12/20 09:08:10;;;;;;;0.83;0.83;;;;;;;6.90;94.70;95827.25;5260064;22;20295;-89
2023/12/20 09:10:36;;;;;;;0.83;0.83;;;;;;;6.86;94.50;95819.06;5026705;28;20293;-87
2023/12/20 09:13:03;;;;;;;0.77;0.77;;;;;;;6.81;94.96;95839.16;5028057;28;20202;-88
2023/12/20 09:15:44;;;;;;;0.80;0.70;;;;;;;6.68;96.46;95846.41;5028626;28;20225;-88
2023/12/20 09:18:11;;;;;;;1.17;0.80;;;;;;;6.79;96.25;95843.63;5028342;28;20206;-88
2023/12/20 09:20:37;;;;;;;0.90;0.90;;;;;;;6.80;97.11;95860.56;5028128;28;20730;-88
2023/12/20 09:23:08;;;;;;;2.10;0.90;;;;;;;6.81;96.99;95856.25;5028786;28;20241;-88
2023/12/20 09:25:36;;;;;;;0.90;0.90;;;;;;;6.75;96.43;95844.84;5028259;28;20220;-88
2023/12/20 09:28:08;;;;;;;0.80;0.80;;;;;;;6.85;96.73;95853.28;5036092;28;20202;-88
2023/12/20 09:30:44;;;;;;;1.43;0.90;;;;;;;6.87;96.14;95848.00;5027094;28;20229;-87
2023/12/20 09:33:17;;;;;;;1.30;0.90;;;;;;;6.76;96.41;95851.56;5028919;28;20232;-88
2023/12/20 09:35:54;;;;;;;0.80;0.80;;;;;;;6.76;96.60;95845.66;5028517;28;20202;-88
2023/12/20 09:39:07;;;;;;;0.80;0.80;;;;;;;6.75;96.73;95847.41;5028312;28;20217;-88
2023/12/20 09:42:00;;;;;;;0.80;0.80;;;;;;;6.76;96.53;95858.44;5007453;28;20230;-88
2023/12/20 09:44:36;;;;;;;0.83;0.83;;;;;;;6.77;96.75;95860.88;5026461;28;20310;-88
2023/12/20 09:47:04;;;;;;;1.10;0.90;;;;;;;6.88;96.31;95858.09;5024168;28;20224;-88
2023/12/20 09:49:42;;;;;;;0.90;0.90;;;;;;;6.96;95.42;95839.44;5027793;28;20304;-88
2023/12/20 09:52:32;;;;;;;1.03;1.00;;;;;;;6.94;94.68;95831.09;5028249;28;20226;-88
2023/12/20 09:55:06;;;;;;;1.10;0.90;;;;;;;6.93;94.70;95819.25;5032181;28;20226;-88
2023/12/20 09:58:06;;;;;;;1.40;1.30;;;;;;;6.91;95.28;95824.53;5032853;28;20208;-87
2023/12/20 10:00:48;;;;;;;1.30;1.20;;;;;;;6.88;95.81;95837.63;5027791;28;20718;-88
2023/12/20 10:03:37;;;;;;;1.30;1.20;;;;;;;6.93;95.54;95825.16;5012207;28;20206;-87
2023/12/20 10:06:05;;;;;;;1.07;0.97;;;;;;;6.96;95.50;95818.94;5012970;28;20202;-88
2023/12/20 10:08:37;;;;;;;0.90;0.90;;;;;;;6.95;95.50;95812.22;5020435;28;20206;-87
2023/12/20 10:11:15;;;;;;;1.00;1.00;;;;;;;7.02;95.25;95815.81;5031648;28;20599;-87
2023/12/20 10:13:51;;;;;;;1.20;1.10;;;;;;;7.14;95.32;95829.16;5032151;28;20263;-88
2023/12/20 10:16:26;;;;;;;1.20;1.10;;;;;;;7.14;95.88;95832.53;5023734;28;20207;-89
2023/12/20 10:19:12;;;;;;;1.33;1.10;;;;;;;7.12;95.79;95824.19;5031514;28;20201;-88
2023/12/20 10:21:52;;;;;;;1.27;1.07;;;;;;;7.22;95.22;95824.91;5031692;28;20645;-87
2023/12/20 10:24:20;;;;;;;1.10;1.00;;;;;;;7.22;95.86;95824.09;5031312;28;20686;-88
2023/12/20 10:27:05;;;;;;;2.10;1.07;;;;;;;7.24;96.06;95835.00;5031835;28;20206;-88
2023/12/20 10:30:24;;;;;;;1.20;1.10;;;;;;;7.20;96.58;95837.06;5030393;28;20221;-88
2023/12/20 10:33:35;;;;;;;1.10;1.00;;;;;;;7.28;96.87;95838.88;4996137;28;20229;-88
2023/12/20 10:43:03;;;;;;;1.97;1.80;;;;;;;7.45;96.40;95842.34;4874113;29;20235;-87
2023/12/20 10:45:39;;;;;;;1.60;1.50;;;;;;;7.41;97.03;95831.59;4890335;29;20877;-88
2023/12/20 10:48:11;;;;;;;0.93;0.90;;;;;;;7.33;96.21;95818.72;4924134;28;20302;-88
2023/12/20 10:50:39;;;;;;;1.13;1.07;;;;;;;7.31;96.41;95819.88;4988933;28;20258;-88
2023/12/20 10:53:14;;;;;;;1.87;1.10;;;;;;;7.35;95.87;95813.47;5011277;28;20207;-88
2023/12/20 10:55:56;;;;;;;1.00;1.00;;;;;;;7.31;95.83;95809.63;5011450;28;20202;-88
2023/12/20 10:58:43;;;;;;;1.30;1.20;;;;;;;7.35;95.97;95809.13;5011858;28;20209;-88
2023/12/20 11:01:16;;;;;;;1.23;1.00;;;;;;;7.25;96.88;95811.81;5021216;28;20230;-88
2023/12/20 11:04:28;;;;;;;1.30;1.20;;;;;;;7.37;96.67;95812.34;5030554;28;20292;-88
2023/12/20 11:10:18;;;;;;;1.30;1.20;;;;;;;7.21;97.03;95817.38;5006724;28;20269;-87
2023/12/20 11:12:49;;;;;;;1.20;1.10;;;;;;;7.26;96.95;95812.63;5010389;28;20318;-89
2023/12/20 11:15:17;;;;;;;1.23;1.17;;;;;;;7.30;96.79;95815.69;5011386;28;20183;-89
2023/12/20 11:17:57;;;;;;;1.33;1.23;;;;;;;7.34;96.14;95804.97;5011214;28;20206;-88
2023/12/20 11:20:39;;;;;;;1.43;1.30;;;;;;;7.34;96.42;95806.72;5019455;28;20202;-89
2023/12/20 11:23:09;;;;;;;1.53;1.43;;;;;;;7.33;96.49;95800.81;5030427;28;20212;-85
2023/12/20 11:25:53;;;;;;;3.60;2.83;;;;;;;7.48;100.00;95862.56;5033712;28;20194;-87
2023/12/20 11:28:39;;;;;;;4.70;2.87;;;;;;;7.77;100.00;95921.97;5033118;28;20668;-86
2023/12/20 11:31:12;;;;;;;2.00;1.40;;;;;;;7.96;100.00;95857.69;5033454;28;20230;-84
2023/12/20 11:33:48;;;;;;;1.63;1.53;;;;;;;8.04;96.53;95777.44;5032204;28;20197;-85
2023/12/20 11:36:37;;;;;;;1.70;1.60;;;;;;;8.06;92.09;95698.59;5025858;28;20206;-89
2023/12/20 11:39:08;;;;;;;1.50;1.40;;;;;;;8.00;90.77;95662.53;4981747;28;20278;-89
2023/12/20 11:41:35;;;;;;;1.80;1.60;;;;;;;7.94;90.21;95656.25;5027251;28;20232;-89
2023/12/20 11:44:02;;;;;;;1.70;1.60;;;;;;;7.90;90.11;95650.63;5028112;28;20731;-89
2023/12/20 11:46:29;;;;;;;1.40;1.30;;;;;;;7.85;89.73;95636.72;5028033;28;20717;-89
2023/12/20 11:49:14;;;;;;;1.90;1.70;;;;;;;7.83;90.04;95642.00;5029352;28;20208;-88
2023/12/20 11:51:46;;;;;;;1.63;1.53;;;;;;;7.87;89.56;95634.81;5028054;28;20226;-89
2023/12/20 11:54:17;;;;;;;2.23;1.70;;;;;;;7.86;89.14;95621.19;5029770;28;20200;-88
2023/12/20 11:56:50;;;;;;;2.93;1.80;;;;;;;7.90;88.92;95621.66;5029975;28;20224;-89
2023/12/20 11:59:17;;;;;;;1.47;1.37;;;;;;;7.84;88.39;95607.72;5029657;28;20206;-89
2023/12/20 12:01:50;;;;;;;1.57;1.20;;;;;;;7.76;88.43;95604.34;5026569;23;20234;-89
2023/12/20 12:04:32;;;;;;;1.43;1.33;;;;;;;7.83;88.45;95593.31;5010134;28;20555;-89
2023/12/20 12:06:59;;;;;;;1.43;1.30;;;;;;;7.83;87.56;95584.81;5010132;28;20603;-88
2023/12/20 12:09:25;;;;;;;1.23;1.13;;;;;;;7.90;86.90;95575.50;5008458;28;20206;-88
2023/12/20 12:11:52;;;;;;;1.30;1.20;;;;;;;7.94;86.38;95572.47;5009993;28;20230;-89
2023/12/20 12:14:35;;;;;;;1.30;1.20;;;;;;;8.04;85.75;95556.94;5009952;28;20209;-89
2023/12/20 12:34:55;;;;;;;1.27;1.17;;;;;;;7.76;84.64;95514.63;4975488;28;20211;-88
2023/12/20 12:37:24;;;;;;;1.30;1.20;;;;;;;7.75;84.17;95501.03;4882819;29;20272;-90
2023/12/20 12:39:54;;;;;;;1.10;1.10;;;;;;;7.74;83.93;95501.19;4872429;29;20581;-88
2023/12/20 12:42:30;;;;;;;1.83;1.30;;;;;;;7.80;84.19;95497.97;4949786;28;20231;-88
2023/12/20 12:45:22;;;;;;;1.43;1.30;;;;;;;7.80;84.62;95497.97;4980731;28;20209;-88
2023/12/20 12:47:59;;;;;;;1.40;1.30;;;;;;;7.78;84.79;95508.38;4980798;28;20294;-87
2023/12/20 12:50:27;;;;;;;1.80;1.70;;;;;;;7.77;85.47;95518.81;5008590;28;20202;-88
2023/12/20 12:58:29;;;;;;;1.40;1.30;;;;;;;7.76;85.29;95518.00;5004271;28;20838;-87
2023/12/20 13:03:54;;;;;;;1.50;1.40;;;;;;;7.63;88.13;95597.13;5358233;22;20238;-88
2023/12/20 13:06:21;;;;;;;1.70;1.60;;;;;;;7.54;89.10;95629.59;5028517;28;20190;-89
2023/12/20 13:08:52;;;;;;;1.70;1.60;;;;;;;7.35;89.75;95640.09;5028493;28;20203;-89
2023/12/20 13:11:22;;;;;;;1.57;1.47;;;;;;;7.23;89.29;95618.31;5028017;28;20233;-88
2023/12/20 13:13:48;;;;;;;2.07;1.40;;;;;;;7.25;90.08;95642.81;5027581;28;20202;-88
2023/12/20 13:16:15;;;;;;;1.40;1.30;;;;;;;7.19;89.78;95634.94;5028438;28;20297;-89
2023/12/20 13:18:51;;;;;;;4.40;3.03;;;;;;;7.16;90.48;95653.97;5028212;28;20301;-88
2023/12/20 13:21:19;;;;;;;3.67;3.10;;;;;;;7.20;89.85;95647.56;5027966;28;20229;-89
2023/12/20 13:23:45;;;;;;;1.93;1.67;;;;;;;7.20;88.75;95621.16;5028558;28;20206;-88
2023/12/20 13:26:35;;;;;;;1.57;1.43;;;;;;;7.17;88.26;95617.16;5027589;28;20198;-89
2023/12/20 13:29:01;;;;;;;1.57;1.27;;;;;;;7.14;87.27;95589.28;5025888;28;20198;-88
2023/12/20 13:31:28;;;;;;;1.87;1.47;;;;;;;7.06;85.09;95552.66;5031686;28;20220;-88
2023/12/20 13:34:14;;;;;;;2.10;1.63;;;;;;;7.05;84.87;95540.81;5028534;28;20237;-88